Terminal Aerodrome Forecast
Issued by NWS Austin/San Antonio, TX

Home | Current Version | Previous Version | Text Only | Print | Product List | Glossary On
Versions: 1 2 3 4 5 6 7 8 9 10 11 12 13 14 15 16 17 18
000
FTUS44 KEWX 132320
TAFSAT
TAF
KSAT 132320Z 1400/1506 22005KT P6SM BKN250
     FM140900 29005KT P6SM SCT100 BKN250
     FM142100 01010KT P6SM SCT120 BKN250=

USA.gov is the U.S. government's official web portal to all federal, state and local government web resources and services.